Time;durP1;ratioP1;P1;durP2;ratioP2;P2;SDS_P1;SDS_P2;PMS_P1;PMS_P2;Temp;Humidity;BMP_temperature;BMP_pressure;BME280_temperature;BME280_humidity;BME280_pressure;Samples;Min_cycle;Max_cycle;Signal;HPM_P1;HPM_P2
2022/04/29 00:00:41;;;;;;;6.80;2.67;;;;;;;19.52;57.91;101270.75;5091893;28;20186;-64
2022/04/29 00:03:07;;;;;;;7.30;2.47;;;;;;;19.51;57.71;101269.09;5092063;28;20677;-64
2022/04/29 00:05:36;;;;;;;4.70;2.60;;;;;;;19.50;57.79;101267.44;5074088;28;20554;-64
2022/04/29 00:08:05;;;;;;;5.57;2.43;;;;;;;19.51;58.02;101271.94;5092008;28;20222;-63
2022/04/29 00:10:31;;;;;;;7.90;2.27;;;;;;;19.50;57.88;101264.56;5091987;28;20444;-63
2022/04/29 00:12:56;;;;;;;4.57;2.53;;;;;;;19.49;57.93;101265.78;5091852;28;20405;-63
2022/04/29 00:15:22;;;;;;;5.00;2.43;;;;;;;19.51;57.72;101257.63;5080115;28;20185;-63
2022/04/29 00:17:47;;;;;;;3.20;2.10;;;;;;;19.53;57.78;101254.41;5091168;28;20758;-63
2022/04/29 00:20:13;;;;;;;7.57;2.67;;;;;;;19.51;57.97;101253.97;5091145;28;20173;-63
2022/04/29 00:22:39;;;;;;;5.07;2.63;;;;;;;19.48;57.76;101252.66;5091749;28;20171;-63
2022/04/29 00:25:05;;;;;;;5.23;2.57;;;;;;;19.48;57.90;101246.06;5091899;28;20409;-63
2022/04/29 00:27:30;;;;;;;7.37;2.60;;;;;;;19.49;58.07;101242.84;5091284;28;20178;-63
2022/04/29 00:29:56;;;;;;;5.57;2.77;;;;;;;19.48;58.02;101246.94;5091681;28;20467;-63
2022/04/29 00:32:22;;;;;;;4.63;2.63;;;;;;;19.47;57.95;101248.09;5090613;28;20706;-63
2022/04/29 00:34:48;;;;;;;4.37;2.57;;;;;;;19.50;58.08;101244.53;5090355;28;20506;-63
2022/04/29 00:37:13;;;;;;;4.47;2.37;;;;;;;19.50;58.07;101247.38;5091562;28;20408;-63
2022/04/29 00:39:39;;;;;;;5.37;2.40;;;;;;;19.50;57.71;101247.38;5091720;28;20777;-63
2022/04/29 00:42:16;;;;;;;5.33;2.90;;;;;;;19.49;57.99;101240.00;5091374;28;20174;-63
2022/04/29 00:44:43;;;;;;;5.70;2.60;;;;;;;19.49;58.19;101254.31;5074599;28;20194;-63
2022/04/29 00:47:11;;;;;;;3.03;2.33;;;;;;;19.48;57.99;101238.34;5091476;28;20478;-63
2022/04/29 00:49:36;;;;;;;3.90;2.20;;;;;;;19.49;57.77;101242.00;5091556;28;20413;-63
2022/04/29 00:52:02;;;;;;;4.60;2.50;;;;;;;19.49;57.66;101242.00;5073394;28;20495;-63
2022/04/29 00:54:31;;;;;;;3.73;2.37;;;;;;;19.48;58.03;101244.06;5073665;28;20174;-63
2022/04/29 00:56:57;;;;;;;3.90;2.60;;;;;;;19.48;58.06;101246.94;5092964;28;20491;-63
2022/04/29 00:59:53;;;;;;;3.67;2.57;;;;;;;19.48;57.79;101237.50;5077563;28;20440;-64
2022/04/29 01:02:19;;;;;;;11.10;3.10;;;;;;;19.48;57.81;101238.34;5095823;28;20158;-64
2022/04/29 01:05:06;;;;;;;6.80;2.60;;;;;;;19.48;58.06;101237.50;5061253;28;20821;-64
2022/04/29 01:07:32;;;;;;;4.63;2.37;;;;;;;19.48;57.95;101241.19;5087179;28;20715;-64
2022/04/29 01:09:58;;;;;;;5.17;2.30;;;;;;;19.48;57.71;101246.06;5077367;28;20412;-64
2022/04/29 01:12:24;;;;;;;3.30;2.20;;;;;;;19.49;57.99;101237.13;5073950;28;20862;-63
2022/04/29 01:14:49;;;;;;;5.43;2.27;;;;;;;19.49;58.39;101237.13;5077427;28;20177;-63
2022/04/29 01:17:15;;;;;;;5.87;2.40;;;;;;;19.48;58.02;101226.03;5076854;28;20514;-64
2022/04/29 01:19:40;;;;;;;5.00;2.30;;;;;;;19.47;58.26;101233.78;5095119;28;20166;-64
2022/04/29 01:22:07;;;;;;;4.93;2.80;;;;;;;19.47;57.81;101228.06;5076783;28;20174;-64
2022/04/29 01:24:32;;;;;;;3.77;2.10;;;;;;;19.47;57.77;101233.78;5095206;28;20194;-63
2022/04/29 01:26:58;;;;;;;3.47;2.20;;;;;;;19.46;57.87;101232.13;5094865;28;20420;-64
2022/04/29 01:29:23;;;;;;;4.80;2.23;;;;;;;19.47;58.36;101233.78;5095196;28;20190;-64
2022/04/29 01:31:50;;;;;;;4.33;1.90;;;;;;;19.48;58.06;101224.00;5095027;28;20170;-64
2022/04/29 01:34:15;;;;;;;4.20;2.30;;;;;;;19.46;57.85;101225.56;5066160;28;20175;-64
2022/04/29 01:36:41;;;;;;;3.70;2.07;;;;;;;19.44;57.89;101228.78;5093897;28;20772;-64
2022/04/29 01:39:06;;;;;;;2.93;1.90;;;;;;;19.47;57.78;101230.91;5094980;28;20537;-64
2022/04/29 01:41:33;;;;;;;5.20;2.73;;;;;;;19.47;57.94;101232.97;5094665;28;20151;-64
2022/04/29 01:43:58;;;;;;;6.30;2.40;;;;;;;19.45;57.87;101227.59;5075019;28;20195;-64
2022/04/29 01:46:23;;;;;;;5.90;2.43;;;;;;;19.46;58.05;101226.38;5094548;28;20443;-64
2022/04/29 01:48:49;;;;;;;4.40;2.30;;;;;;;19.47;57.86;101221.50;5094346;28;20170;-64
2022/04/29 01:51:15;;;;;;;7.23;1.90;;;;;;;19.46;58.03;101232.13;5093734;28;20170;-64
2022/04/29 01:53:41;;;;;;;3.00;2.00;;;;;;;19.47;58.01;101222.31;5093454;28;20185;-64
2022/04/29 01:56:06;;;;;;;5.57;2.47;;;;;;;19.46;58.27;101219.84;5076222;28;20492;-64
2022/04/29 01:58:32;;;;;;;5.60;2.73;;;;;;;19.46;57.97;101222.72;5094219;28;20181;-64
2022/04/29 02:00:57;;;;;;;3.07;2.00;;;;;;;19.47;57.84;101215.78;5093499;28;20186;-64
2022/04/29 02:03:23;;;;;;;2.80;1.93;;;;;;;19.45;58.05;101212.44;5076111;28;20281;-64
2022/04/29 02:05:48;;;;;;;5.47;2.50;;;;;;;19.45;57.91;101206.69;5094574;28;20186;-64
2022/04/29 02:08:14;;;;;;;5.47;2.53;;;;;;;19.47;57.93;101215.78;5092729;28;20758;-65
2022/04/29 02:10:39;;;;;;;4.50;2.63;;;;;;;19.45;57.86;101215.28;5094434;28;20170;-63
2022/04/29 02:13:05;;;;;;;2.80;2.00;;;;;;;19.44;57.86;101211.63;5094030;28;20163;-63
2022/04/29 02:15:30;;;;;;;2.90;1.70;;;;;;;19.46;57.98;101217.78;5094365;28;20253;-63
2022/04/29 02:17:55;;;;;;;4.87;2.50;;;;;;;19.44;57.87;101211.63;5093747;28;20194;-63
2022/04/29 02:20:21;;;;;;;4.73;2.20;;;;;;;19.45;57.81;101212.44;5094407;28;20182;-63
2022/04/29 02:22:47;;;;;;;5.93;2.80;;;;;;;19.44;58.18;101205.88;5093843;28;20166;-63
2022/04/29 02:25:12;;;;;;;3.40;2.20;;;;;;;19.43;57.95;101212.81;5094028;28;20171;-64
2022/04/29 02:27:39;;;;;;;3.63;2.20;;;;;;;19.44;58.01;101203.03;5094445;28;20254;-64
2022/04/29 02:30:05;;;;;;;5.20;2.17;;;;;;;19.44;58.04;101205.03;5094064;28;20182;-64
2022/04/29 02:32:33;;;;;;;3.53;2.30;;;;;;;19.44;58.04;101196.44;5093766;28;20423;-64
2022/04/29 02:35:00;;;;;;;4.97;2.40;;;;;;;19.44;58.07;101194.44;5075458;28;20421;-64
2022/04/29 02:37:27;;;;;;;3.63;2.40;;;;;;;19.44;58.04;101194.44;5084506;28;20464;-64
2022/04/29 02:39:53;;;;;;;5.63;2.13;;;;;;;19.43;57.92;101192.78;5093747;28;20416;-64
2022/04/29 02:42:18;;;;;;;3.30;1.97;;;;;;;19.43;57.81;101189.06;5093394;28;20503;-64
2022/04/29 02:44:44;;;;;;;4.30;2.40;;;;;;;19.44;57.76;101187.84;5075506;28;20526;-63
2022/04/29 02:47:09;;;;;;;3.67;2.13;;;;;;;19.45;57.89;101192.38;5093164;28;20281;-64
2022/04/29 02:49:42;;;;;;;3.73;2.47;;;;;;;19.44;57.81;101188.72;5093773;28;20154;-64
2022/04/29 02:52:09;;;;;;;4.10;2.50;;;;;;;19.43;58.06;101186.19;5093172;28;20196;-64
2022/04/29 02:54:34;;;;;;;3.80;2.20;;;;;;;19.43;57.95;101189.06;5093560;28;20871;-64
2022/04/29 02:57:00;;;;;;;3.43;1.90;;;;;;;19.43;58.02;101192.78;5093446;28;20420;-64
2022/04/29 02:59:25;;;;;;;3.80;2.10;;;;;;;19.43;58.25;101192.78;5093545;28;20178;-63
2022/04/29 03:01:52;;;;;;;3.40;2.10;;;;;;;19.42;57.92;101193.94;5089619;28;20178;-64
2022/04/29 03:04:17;;;;;;;4.80;2.33;;;;;;;19.42;57.80;101191.09;5085771;28;20296;-64
2022/04/29 03:06:43;;;;;;;2.97;1.67;;;;;;;19.43;57.98;101187.03;5093124;28;20803;-64
2022/04/29 03:09:08;;;;;;;5.90;2.00;;;;;;;19.43;58.20;101187.03;5093122;28;20260;-64
2022/04/29 03:11:34;;;;;;;3.93;2.27;;;;;;;19.41;58.00;101188.59;5089940;28;20255;-64
2022/04/29 03:13:59;;;;;;;4.57;2.30;;;;;;;19.42;57.78;101196.81;5093137;28;20167;-63
2022/04/29 03:16:25;;;;;;;4.80;2.60;;;;;;;19.42;57.97;101198.84;5092768;28;20170;-63
2022/04/29 03:18:50;;;;;;;2.83;1.73;;;;;;;19.43;58.30;101191.94;5092670;28;20166;-63
2022/04/29 03:21:18;;;;;;;3.70;2.00;;;;;;;19.41;57.83;101200.88;5092780;28;20991;-63
2022/04/29 03:23:45;;;;;;;2.80;1.87;;;;;;;19.41;58.10;101198.00;5091542;28;20190;-63
2022/04/29 03:26:11;;;;;;;3.80;2.20;;;;;;;19.44;57.91;101193.59;5093080;28;20459;-63
2022/04/29 03:28:36;;;;;;;3.93;2.27;;;;;;;19.44;58.05;101191.56;5092709;28;20783;-63
2022/04/29 03:31:02;;;;;;;4.60;2.27;;;;;;;19.43;57.81;101195.63;5073922;28;20206;-63
2022/04/29 03:33:28;;;;;;;3.53;1.90;;;;;;;19.41;58.01;101197.19;5077324;28;20545;-63
2022/04/29 03:35:53;;;;;;;3.07;1.90;;;;;;;19.40;58.31;101198.38;5092659;28;20412;-63
2022/04/29 03:38:19;;;;;;;3.87;1.87;;;;;;;19.41;58.35;101200.88;5074357;28;20182;-63
2022/04/29 03:40:44;;;;;;;3.00;1.93;;;;;;;19.40;57.89;101202.09;5089168;28;20189;-63
2022/04/29 03:43:11;;;;;;;3.73;2.00;;;;;;;19.40;58.04;101202.09;5092192;28;20206;-64
2022/04/29 03:45:37;;;;;;;2.87;1.77;;;;;;;19.40;57.97;101182.03;5089653;28;20313;-64
2022/04/29 03:48:03;;;;;;;3.87;1.97;;;;;;;19.39;57.88;101183.25;5054078;28;20773;-63
2022/04/29 03:50:29;;;;;;;2.67;1.80;;;;;;;19.40;57.97;101192.66;5072211;28;20197;-63
2022/04/29 03:52:57;;;;;;;4.10;2.07;;;;;;;19.42;58.02;101185.34;5072035;28;20198;-64
2022/04/29 03:55:24;;;;;;;3.70;2.07;;;;;;;19.40;57.95;101182.03;5072173;28;20788;-63
2022/04/29 03:57:50;;;;;;;3.60;1.90;;;;;;;19.41;58.38;101189.41;5084041;28;20525;-63
2022/04/29 04:00:16;;;;;;;3.00;2.03;;;;;;;19.41;57.85;101185.75;5091967;28;20440;-63
2022/04/29 04:02:42;;;;;;;6.80;2.10;;;;;;;19.39;58.03;101197.56;5073913;28;20186;-63
2022/04/29 04:05:08;;;;;;;4.83;2.30;;;;;;;19.40;58.05;101184.91;5092122;28;20186;-63
2022/04/29 04:07:33;;;;;;;3.80;1.90;;;;;;;19.40;57.79;101187.75;5091668;28;20681;-63
2022/04/29 04:09:59;;;;;;;3.73;2.10;;;;;;;19.39;58.20;101183.25;5092009;28;20420;-63
2022/04/29 04:12:24;;;;;;;3.23;2.13;;;;;;;19.40;57.67;101184.91;5091889;28;20638;-63
2022/04/29 04:14:50;;;;;;;2.90;1.77;;;;;;;19.38;58.07;101193.03;5073910;28;20174;-63
2022/04/29 04:17:16;;;;;;;3.00;1.50;;;;;;;19.39;57.95;101191.84;5091784;28;20527;-63
2022/04/29 04:19:41;;;;;;;3.73;1.73;;;;;;;19.39;58.04;101182.41;5091795;28;20461;-64
2022/04/29 04:22:06;;;;;;;3.30;2.00;;;;;;;19.37;57.93;101191.34;5091950;28;20181;-63
2022/04/29 04:24:32;;;;;;;7.03;2.13;;;;;;;19.38;57.77;101190.16;5091790;28;20205;-63
2022/04/29 04:26:57;;;;;;;3.70;2.00;;;;;;;19.38;57.94;101195.06;5073695;28;20622;-63
2022/04/29 04:29:23;;;;;;;3.40;2.20;;;;;;;19.39;58.22;101193.84;5091520;28;20174;-63
2022/04/29 04:31:48;;;;;;;3.10;1.60;;;;;;;19.39;57.91;101188.97;5091103;28;20514;-63
2022/04/29 04:36:58;;;;;;;2.90;2.00;;;;;;;19.38;57.97;101206.50;5091642;28;20169;-63
2022/04/29 04:39:24;;;;;;;4.30;2.07;;;;;;;19.39;57.98;101203.28;5091541;28;20899;-63
2022/04/29 04:41:50;;;;;;;2.83;2.00;;;;;;;19.38;57.89;101210.22;5091139;28;20660;-63
2022/04/29 04:44:16;;;;;;;3.30;2.00;;;;;;;19.38;58.07;101210.22;5091722;28;20210;-63
2022/04/29 04:46:41;;;;;;;2.30;1.50;;;;;;;19.38;58.44;101215.94;5091428;28;20931;-63
2022/04/29 04:49:07;;;;;;;3.33;1.70;;;;;;;19.39;57.83;101211.88;5091583;28;20220;-63
2022/04/29 04:51:32;;;;;;;2.77;1.70;;;;;;;19.37;58.04;101211.38;5091487;28;20170;-63
2022/04/29 04:53:58;;;;;;;2.57;1.80;;;;;;;19.38;58.15;101206.50;5091662;28;20675;-63
2022/04/29 04:56:23;;;;;;;2.40;1.70;;;;;;;19.38;58.01;101213.06;5087658;28;20170;-63
2022/04/29 04:58:49;;;;;;;3.10;2.03;;;;;;;19.40;57.68;101215.56;5071254;28;20175;-63
2022/04/29 05:01:14;;;;;;;2.93;1.80;;;;;;;19.37;58.21;101214.25;5071557;28;20194;-63
2022/04/29 05:03:40;;;;;;;2.80;2.00;;;;;;;19.39;57.93;101205.31;5078515;28;20654;-63
2022/04/29 05:06:05;;;;;;;4.27;2.03;;;;;;;19.39;57.93;101216.75;5091194;28;20174;-63
2022/04/29 05:08:30;;;;;;;3.10;2.40;;;;;;;19.38;57.86;101212.22;5091223;28;20569;-63
2022/04/29 05:10:56;;;;;;;2.50;1.90;;;;;;;19.39;57.70;101216.75;5087894;28;20182;-63
2022/04/29 05:13:21;;;;;;;4.33;2.07;;;;;;;19.37;58.12;101217.13;5091395;28;20170;-63
2022/04/29 05:15:47;;;;;;;3.27;1.77;;;;;;;19.39;58.04;101222.47;5091195;28;20178;-63
2022/04/29 05:18:12;;;;;;;3.83;1.77;;;;;;;19.38;57.88;101226.56;5072999;28;20657;-63
2022/04/29 05:20:38;;;;;;;3.23;1.60;;;;;;;19.40;57.94;101221.28;5091564;28;20187;-63
2022/04/29 05:23:03;;;;;;;3.57;2.00;;;;;;;19.40;58.02;101233.59;5091209;28;20202;-63
2022/04/29 05:25:28;;;;;;;2.57;1.50;;;;;;;19.40;57.89;101230.72;5073593;28;20201;-63
2022/04/29 05:27:54;;;;;;;3.00;2.00;;;;;;;19.40;58.05;101229.88;5071030;28;20179;-63
2022/04/29 05:30:19;;;;;;;3.30;1.50;;;;;;;19.38;57.98;101236.00;5071121;28;20175;-63
2022/04/29 05:32:46;;;;;;;3.83;1.63;;;;;;;19.38;57.92;101244.59;5070957;28;20543;-63
2022/04/29 05:35:12;;;;;;;3.10;1.63;;;;;;;19.38;58.22;101241.72;5090912;28;20182;-64
2022/04/29 05:37:40;;;;;;;3.00;1.60;;;;;;;19.39;58.04;101237.66;5055605;28;20416;-63
2022/04/29 05:42:50;;;;;;;3.10;1.83;;;;;;;19.39;57.88;101242.53;5092238;28;20419;-63
2022/04/29 05:45:15;;;;;;;5.73;2.30;;;;;;;19.40;57.80;101250.75;5084349;28;20429;-63
2022/04/29 05:47:42;;;;;;;3.03;1.77;;;;;;;19.38;57.81;101247.44;5074348;28;20191;-63
2022/04/29 05:50:07;;;;;;;2.70;1.90;;;;;;;19.39;57.91;101249.09;5074312;28;20179;-63
2022/04/29 05:52:32;;;;;;;2.83;1.60;;;;;;;19.40;57.74;101249.91;5074163;28;20483;-63
2022/04/29 05:54:58;;;;;;;2.80;1.73;;;;;;;19.37;57.82;101251.47;5078213;28;20174;-63
2022/04/29 05:57:24;;;;;;;3.10;2.10;;;;;;;19.37;57.92;101262.94;5094650;28;20522;-63
2022/04/29 05:59:50;;;;;;;2.67;1.80;;;;;;;19.38;57.69;101255.19;5094526;28;20166;-63
2022/04/29 06:02:15;;;;;;;2.43;1.47;;;;;;;19.38;57.74;101258.91;5094400;28;20182;-63
2022/04/29 06:04:40;;;;;;;4.40;2.00;;;;;;;19.39;57.70;101257.69;5094144;28;20208;-63
2022/04/29 06:07:06;;;;;;;4.70;2.20;;;;;;;19.39;58.16;101243.38;5093751;28;20174;-63
2022/04/29 06:09:31;;;;;;;4.70;2.03;;;;;;;19.40;57.76;101244.19;5074108;28;20180;-63
2022/04/29 06:11:57;;;;;;;3.20;1.80;;;;;;;19.39;58.15;101246.25;5092490;28;20171;-63
2022/04/29 06:14:22;;;;;;;2.70;1.40;;;;;;;19.39;57.77;101243.38;5092527;28;20170;-63
2022/04/29 06:16:48;;;;;;;2.63;1.63;;;;;;;19.39;57.77;101249.09;5092615;28;20208;-63
2022/04/29 06:19:13;;;;;;;3.37;2.30;;;;;;;19.40;57.81;101244.19;5092548;28;20170;-63
2022/04/29 06:21:40;;;;;;;2.77;1.60;;;;;;;19.39;57.91;101239.66;5093979;28;20170;-63
2022/04/29 06:24:06;;;;;;;2.60;1.90;;;;;;;19.40;57.65;101245.03;5075845;28;20213;-63
2022/04/29 06:26:32;;;;;;;3.73;1.73;;;;;;;19.40;57.60;101245.03;5094176;28;20915;-63
2022/04/29 06:28:57;;;;;;;2.77;1.53;;;;;;;19.40;57.83;101247.91;5093790;28;20520;-63
2022/04/29 06:31:26;;;;;;;4.30;1.70;;;;;;;19.39;57.92;101243.38;5093880;28;20181;-63
2022/04/29 06:33:51;;;;;;;2.57;1.90;;;;;;;19.38;57.79;101238.00;5084738;28;20182;-63
2022/04/29 06:36:16;;;;;;;2.90;1.53;;;;;;;19.40;57.75;101239.31;5082294;28;20424;-63
2022/04/29 06:38:42;;;;;;;2.93;1.80;;;;;;;19.39;57.94;101243.38;5093857;28;20170;-63
2022/04/29 06:41:07;;;;;;;4.20;2.03;;;;;;;19.40;57.67;101245.03;5093814;28;20549;-63
2022/04/29 06:43:33;;;;;;;3.73;2.20;;;;;;;19.40;57.64;101244.19;5093561;28;20191;-63
2022/04/29 06:45:58;;;;;;;3.03;1.87;;;;;;;19.40;57.65;101239.31;5093080;28;20194;-63
2022/04/29 06:48:24;;;;;;;2.40;1.63;;;;;;;19.40;57.73;101244.19;5093634;28;20208;-63
2022/04/29 06:50:49;;;;;;;3.43;1.60;;;;;;;19.38;57.71;101247.44;5093206;28;20179;-63
2022/04/29 06:53:15;;;;;;;3.07;2.00;;;;;;;19.40;57.77;101241.31;5093478;28;20173;-63
2022/04/29 06:55:40;;;;;;;3.07;1.93;;;;;;;19.39;57.57;101237.66;5074672;28;20166;-63
2022/04/29 06:58:06;;;;;;;3.20;1.73;;;;;;;19.40;58.00;101245.03;5093439;28;20512;-63
2022/04/29 07:00:32;;;;;;;3.90;1.93;;;;;;;19.40;57.64;101239.31;5075030;28;20201;-63
2022/04/29 07:02:58;;;;;;;2.57;1.90;;;;;;;19.40;57.60;101238.47;5079647;28;20445;-63
2022/04/29 07:05:23;;;;;;;4.63;2.00;;;;;;;19.40;57.64;101232.75;5093223;28;20420;-63
2022/04/29 07:07:52;;;;;;;2.40;1.40;;;;;;;19.42;57.67;101233.22;5093112;28;20222;-63
2022/04/29 07:10:18;;;;;;;3.07;1.80;;;;;;;19.39;57.50;101233.94;5093090;28;20236;-63
2022/04/29 07:12:44;;;;;;;3.13;1.60;;;;;;;19.39;57.63;101237.66;5093024;28;20408;-63
2022/04/29 07:15:10;;;;;;;3.80;1.90;;;;;;;19.37;57.92;101234.28;5091724;28;20175;-63
2022/04/29 07:17:36;;;;;;;2.80;1.73;;;;;;;19.38;57.49;101230.25;5091433;28;20424;-63
2022/04/29 07:20:03;;;;;;;2.80;1.83;;;;;;;19.39;57.60;101234.78;5089709;28;20413;-63
2022/04/29 07:22:28;;;;;;;3.00;2.00;;;;;;;19.38;57.78;101223.69;5054110;28;20542;-63
2022/04/29 07:24:54;;;;;;;3.07;1.63;;;;;;;19.40;57.70;101225.00;5073810;28;20445;-63
2022/04/29 07:27:19;;;;;;;2.73;1.80;;;;;;;19.39;57.54;101222.47;5071076;28;20706;-63
2022/04/29 07:29:44;;;;;;;2.90;1.80;;;;;;;19.39;57.53;101226.19;5071490;28;20151;-63
2022/04/29 07:32:10;;;;;;;2.40;1.60;;;;;;;19.38;57.66;101221.66;5072457;28;20175;-63
2022/04/29 07:42:48;;;;;;;2.97;1.90;;;;;;;19.40;57.56;101222.13;5072279;28;20416;-63
2022/04/29 07:45:13;;;;;;;2.60;1.70;;;;;;;19.41;57.55;101214.38;5072133;28;20413;-63
2022/04/29 07:47:39;;;;;;;3.03;1.70;;;;;;;19.41;57.48;101212.34;5053594;28;20218;-63
2022/04/29 07:50:06;;;;;;;2.80;2.00;;;;;;;19.40;57.51;101221.28;5082191;28;20213;-63
2022/04/29 07:52:32;;;;;;;2.33;1.60;;;;;;;19.39;57.57;101220.47;5070502;28;20193;-63
2022/04/29 07:54:57;;;;;;;2.50;1.63;;;;;;;19.40;57.88;101222.13;5070436;28;20889;-63
2022/04/29 07:57:23;;;;;;;2.87;1.70;;;;;;;19.39;57.50;101217.59;5070668;28;20413;-63
2022/04/29 07:59:49;;;;;;;2.50;1.63;;;;;;;19.39;57.84;101220.47;5071087;28;20250;-63
2022/04/29 08:02:14;;;;;;;3.00;1.60;;;;;;;19.37;57.58;101217.13;5054006;28;20616;-63
2022/04/29 08:04:39;;;;;;;3.00;1.93;;;;;;;19.37;57.65;101211.38;5087528;28;20666;-63
2022/04/29 08:07:05;;;;;;;2.30;1.70;;;;;;;19.37;57.53;101217.13;5090643;28;20649;-63
2022/04/29 08:09:30;;;;;;;2.73;1.70;;;;;;;19.39;57.61;101213.91;5092055;28;20171;-63
2022/04/29 08:11:56;;;;;;;2.60;1.50;;;;;;;19.39;57.91;101202.44;5092090;28;20197;-63
2022/04/29 08:14:22;;;;;;;2.77;1.50;;;;;;;19.38;57.48;101213.06;5092152;28;20181;-63
2022/04/29 08:16:49;;;;;;;2.30;1.40;;;;;;;19.38;57.67;101209.38;5091895;28;20530;-63
2022/04/29 08:19:14;;;;;;;3.57;1.70;;;;;;;19.38;57.58;101210.22;5092211;28;20463;-63
2022/04/29 08:21:40;;;;;;;2.20;1.40;;;;;;;19.39;57.83;101211.03;5091700;28;20409;-63
2022/04/29 08:24:06;;;;;;;3.20;2.00;;;;;;;19.39;57.64;101211.03;5091667;28;20673;-63
2022/04/29 08:26:31;;;;;;;2.13;1.30;;;;;;;19.41;57.48;101208.66;5091597;28;20231;-63
2022/04/29 08:28:58;;;;;;;2.50;1.50;;;;;;;19.40;57.63;101207.81;5091863;28;20162;-63
2022/04/29 08:31:24;;;;;;;2.40;1.70;;;;;;;19.39;57.54;101208.16;5091669;28;20176;-63
2022/04/29 08:33:49;;;;;;;2.50;1.77;;;;;;;19.38;57.54;101200.78;5065208;28;20429;-64
2022/04/29 08:36:15;;;;;;;2.83;1.63;;;;;;;19.39;57.62;101211.88;5085509;28;20174;-63
2022/04/29 08:38:42;;;;;;;2.53;1.50;;;;;;;19.38;57.54;101201.63;5091562;28;20174;-63
2022/04/29 08:41:07;;;;;;;2.30;1.60;;;;;;;19.38;57.67;101201.63;5090409;28;20409;-63
2022/04/29 08:43:33;;;;;;;2.93;1.80;;;;;;;19.38;57.64;101201.63;5072412;28;20464;-63
2022/04/29 08:45:59;;;;;;;2.30;1.60;;;;;;;19.38;57.81;101198.75;5091349;28;20885;-63
2022/04/29 08:48:25;;;;;;;2.60;1.60;;;;;;;19.38;57.72;101207.34;5056982;28;20175;-63
2022/04/29 08:50:50;;;;;;;2.50;1.53;;;;;;;19.41;57.52;101203.75;5073202;28;20995;-63
2022/04/29 08:53:17;;;;;;;2.73;1.50;;;;;;;19.40;57.53;101209.81;5091518;28;20416;-63
2022/04/29 08:58:38;;;;;;;2.23;1.60;;;;;;;19.39;57.55;101203.28;5056287;28;20515;-63
2022/04/29 09:01:08;;;;;;;3.53;1.93;;;;;;;19.39;57.61;101202.44;5071162;28;20431;-63
2022/04/29 09:03:34;;;;;;;2.10;1.50;;;;;;;19.40;57.75;101202.09;5077474;28;20463;-63
2022/04/29 09:06:00;;;;;;;2.47;1.77;;;;;;;19.40;57.61;101202.09;5091403;28;20470;-62
2022/04/29 09:08:25;;;;;;;2.33;1.63;;;;;;;19.39;57.60;101205.31;5091287;28;20768;-63
2022/04/29 09:10:56;;;;;;;3.33;1.87;;;;;;;19.39;57.68;101200.41;5091269;28;20173;-63
2022/04/29 09:13:24;;;;;;;3.40;1.80;;;;;;;19.39;57.56;101197.56;5091665;28;20900;-63
2022/04/29 09:15:59;;;;;;;2.50;1.70;;;;;;;19.38;57.71;101193.03;5090056;28;20466;-63
2022/04/29 09:18:33;;;;;;;2.37;1.63;;;;;;;19.39;57.40;101188.97;5093253;28;20934;-63
2022/04/29 09:20:59;;;;;;;2.20;1.50;;;;;;;19.40;57.60;101184.06;5094747;28;20427;-63
2022/04/29 09:23:28;;;;;;;2.53;1.80;;;;;;;19.39;57.55;101185.25;5059081;28;20596;-63
2022/04/29 09:25:56;;;;;;;2.23;1.57;;;;;;;19.40;57.56;101184.06;5075139;28;20424;-63
2022/04/29 09:28:22;;;;;;;2.43;1.50;;;;;;;19.38;57.58;101184.44;5077017;28;20417;-63
2022/04/29 09:30:48;;;;;;;2.47;1.20;;;;;;;19.37;57.60;101182.75;5058190;28;20962;-63
2022/04/29 09:33:24;;;;;;;2.07;1.23;;;;;;;19.39;57.58;101179.53;5061529;28;20412;-63
2022/04/29 09:35:49;;;;;;;2.10;1.30;;;;;;;19.37;57.68;101177.03;5094922;28;20173;-63
2022/04/29 09:40:59;;;;;;;2.50;1.40;;;;;;;19.40;57.50;101169.75;5094575;28;20254;-63
2022/04/29 09:43:42;;;;;;;2.10;1.50;;;;;;;19.39;57.68;101160.34;5094618;28;20456;-63
2022/04/29 09:46:22;;;;;;;2.17;1.40;;;;;;;19.40;57.52;101167.72;5094734;28;20190;-63
2022/04/29 09:49:06;;;;;;;3.10;1.47;;;;;;;19.40;57.57;101164.00;5094823;28;20443;-63
2022/04/29 09:51:51;;;;;;;1.80;1.20;;;;;;;19.40;57.59;101164.84;5094396;28;20412;-63
2022/04/29 09:54:27;;;;;;;2.57;1.50;;;;;;;19.39;57.83;101156.63;5093993;28;20416;-63
2022/04/29 09:57:08;;;;;;;2.43;1.47;;;;;;;19.38;57.58;101150.09;5093367;28;20412;-63
2022/04/29 09:59:42;;;;;;;3.10;1.60;;;;;;;19.40;57.55;101149.69;5080260;28;20416;-63
2022/04/29 10:02:11;;;;;;;2.73;1.50;;;;;;;19.38;57.71;101146.38;5074315;28;20889;-63
2022/04/29 10:04:40;;;;;;;2.60;1.67;;;;;;;19.39;57.65;101146.00;5089347;28;20486;-63
2022/04/29 10:07:06;;;;;;;2.47;1.47;;;;;;;19.38;57.55;101138.63;5075841;28;20995;-63
2022/04/29 10:09:33;;;;;;;2.63;1.53;;;;;;;19.39;57.51;101143.16;5094567;28;20443;-63
2022/04/29 10:12:03;;;;;;;2.27;1.40;;;;;;;19.40;57.56;101144.81;5094347;28;20896;-63
2022/04/29 10:14:29;;;;;;;2.27;1.43;;;;;;;19.40;57.55;101139.09;5094206;28;20406;-63
2022/04/29 10:22:51;;;;;;;2.50;1.70;;;;;;;19.42;57.21;101133.81;5078165;28;20430;-63
2022/04/29 10:25:18;;;;;;;6.37;1.70;;;;;;;19.42;57.28;101133.81;5092560;28;20456;-61
2022/04/29 10:27:44;;;;;;;3.53;2.00;;;;;;;19.40;57.50;101136.22;5076161;28;20420;-61
2022/04/29 10:30:10;;;;;;;2.60;1.70;;;;;;;19.38;57.65;101138.63;5092858;28;20412;-61
2022/04/29 10:33:01;;;;;;;2.60;1.60;;;;;;;19.39;57.67;101134.56;5091104;28;20171;-62
2022/04/29 10:35:38;;;;;;;2.80;1.43;;;;;;;19.41;57.48;101131.34;5073907;28;20413;-61
2022/04/29 10:38:23;;;;;;;3.37;1.73;;;;;;;19.43;57.77;101131.78;5073652;28;20484;-61
2022/04/29 10:41:08;;;;;;;2.87;1.60;;;;;;;19.41;57.41;101126.41;5073633;28;20417;-61
2022/04/29 10:43:38;;;;;;;3.63;1.80;;;;;;;19.42;57.44;101128.06;5076907;28;20460;-60
2022/04/29 10:46:23;;;;;;;3.20;1.80;;;;;;;19.42;57.48;101125.22;5073501;28;21013;-61
2022/04/29 10:48:53;;;;;;;2.20;1.60;;;;;;;19.41;57.58;101117.84;5072546;28;20421;-61
2022/04/29 10:51:27;;;;;;;2.60;1.77;;;;;;;19.40;57.41;101124.75;5071965;28;20444;-61
2022/04/29 10:53:57;;;;;;;2.17;1.50;;;;;;;19.42;57.58;101119.50;5071686;28;20414;-60
2022/04/29 10:56:29;;;;;;;3.73;2.03;;;;;;;19.40;57.59;101124.75;5054505;28;20448;-60
2022/04/29 10:59:03;;;;;;;2.90;1.73;;;;;;;19.41;57.48;101119.88;5071774;28;20425;-61
2022/04/29 11:01:33;;;;;;;2.80;1.50;;;;;;;19.42;57.25;101113.75;5055655;28;20411;-61
2022/04/29 11:03:59;;;;;;;2.27;1.60;;;;;;;19.46;57.09;101111.84;5075663;28;20448;-61
2022/04/29 11:06:37;;;;;;;5.57;2.07;;;;;;;19.44;57.38;101105.66;5072938;28;20876;-61
2022/04/29 11:09:03;;;;;;;3.03;1.77;;;;;;;19.43;57.50;101106.00;5056479;28;20230;-62
2022/04/29 11:11:44;;;;;;;3.83;1.80;;;;;;;19.43;57.68;101098.28;5055368;28;20425;-61
2022/04/29 11:14:12;;;;;;;2.53;1.40;;;;;;;19.44;57.10;101099.94;5072501;28;20171;-61
2022/04/29 11:16:57;;;;;;;1.93;1.40;;;;;;;19.42;57.43;101096.59;5076679;28;20416;-61
2022/04/29 11:19:23;;;;;;;2.57;1.73;;;;;;;19.44;58.01;101094.19;5093020;28;20404;-61
2022/04/29 11:24:45;;;;;;;2.83;1.60;;;;;;;19.46;57.27;101091.78;5092329;28;20985;-60
2022/04/29 11:27:11;;;;;;;2.53;1.60;;;;;;;19.45;57.45;101083.56;5056584;28;20417;-60
2022/04/29 11:29:43;;;;;;;2.10;1.50;;;;;;;19.45;57.15;101084.41;5072591;28;20413;-60
2022/04/29 11:32:09;;;;;;;2.53;1.70;;;;;;;19.46;57.29;101080.34;5054986;28;20228;-61
2022/04/29 11:34:34;;;;;;;2.53;1.50;;;;;;;19.45;57.24;101075.81;5086102;28;21943;-61
2022/04/29 11:37:00;;;;;;;2.37;1.60;;;;;;;19.44;57.48;101067.59;5088007;28;20163;-60
2022/04/29 11:39:28;;;;;;;2.40;1.50;;;;;;;19.45;57.28;101072.94;5092673;28;20404;-61
2022/04/29 11:41:57;;;;;;;1.93;1.40;;;;;;;19.46;57.43;101070.94;5073958;28;20178;-60
2022/04/29 11:44:35;;;;;;;2.53;1.60;;;;;;;19.47;57.37;101067.66;5092397;28;20460;-60
2022/04/29 11:47:01;;;;;;;2.23;1.53;;;;;;;19.49;57.15;101058.72;5084033;28;20438;-61
2022/04/29 11:49:28;;;;;;;4.40;1.90;;;;;;;19.48;57.14;101057.91;5092246;28;20549;-60
2022/04/29 11:51:54;;;;;;;2.27;1.53;;;;;;;19.48;57.01;101052.19;5091084;28;20181;-60